• Join FlightAware (Why Join?)
  • Login
  • US Flag GB Flag 
14:04 EDT


 

Airport Tracker/Info


-or-


 

Live Flight TrackerFlight Track Log ✈ CTL22 ✈ 17-Apr-2013 ✈ KAZO - KBKL

Flight Track Log - Related Links

Times and Time Zones

All times are in EDT time to prevent confusion due to time zone crossing. See the CTL22 flight status page for this flight to view local times or setup timezone preferences in your user account.

Time Position Orientation Groundspeed Altitude Reporting Facility
EDT Latitude Longitude Course Direction KTS MPH feet Rate Location/Type
20:05 42.2222 -85.4258 120° Southeast 111 128 5,400  Level Chicago Center
20:06 42.2017 -85.3919 129° Southeast 115 132 6,100 780 Climbing Chicago Center
20:07 42.1803 -85.3542 127° Southeast 123 142 7,100 420 Climbing Chicago Center
20:08 42.1685 -85.1602 103° East  Level Estimated
20:08 42.1611 -85.3072 119° Southeast 139 160 7,000  Level Chicago Center
20:09 42.1573 -85.0951 103° East  Level Estimated
20:09 42.1417 -85.2533 116° Southeast 152 175 7,100  Level Chicago Center
20:10 42.1161 -85.1931 120° Southeast 175 201 7,100  Level Chicago Center
20:11 42.0897 -85.1314 120° Southeast 185 213 7,100  Level Chicago Center
20:12 42.0658 -85.0608 114° Southeast 174 200 7,100 -60 Level Chicago Center
20:13 42.0364 -85.0147 131° Southeast 162 186 7,000  Descending Chicago Center
20:14 42.0064 -84.9756 136° Southeast 153 176 7,200  Climbing Chicago Center
20:15 41.9786 -84.9278 128° Southeast 160 184 7,100 -120 Descending Chicago Center
20:16 41.9475 -84.8822 133° Southeast 164 189 7,000  Descending Chicago Center
20:17 41.9258 -84.8275 118° Southeast 166 191 7,100  Climbing Chicago Center
20:18 41.9017 -84.7697 119° Southeast 172 198 7,000 -60 Descending Chicago Center
20:19 41.8847 -84.7067 110° East 178 205 7,000  Level Chicago Center
20:20 41.8678 -84.6417 109° East 183 211 7,000  Level Chicago Center
20:21 41.8486 -84.5808 113° Southeast 179 206 7,000  Level Chicago Center
20:22 41.8161 -84.5200 126° Southeast 166 191 7,000  Level Chicago Center
20:23 41.7925 -84.4647 120° Southeast 167 192 7,000 -60 Level Chicago Center
20:24 41.7700 -84.4064 117° Southeast 171 197 6,900  Descending Chicago Center
20:25 41.7497 -84.3453 114° Southeast 176 203 7,000  Climbing Chicago Center
20:26 41.7281 -84.2886 117° Southeast 175 201 7,000 -60 Level Chicago Center
20:27 41.7100 -84.2264 111° Southeast 176 203 6,900 -60 Descending Chicago Center
20:28 41.6953 -84.1606 107° East 182 209 6,900  Level Chicago Center
20:30 41.6740 -84.0884 112° Southeast  Level FlightAware Approximate
20:37 41.5802 -83.6889 92° East  Level FlightAware Approximate
20:38 41.5782 -83.6286 93° East  Level FlightAware Approximate
20:39 41.5762 -83.5683 93° East  Level FlightAware Approximate
20:40 41.5741 -83.5080 93° East  Level FlightAware Approximate
20:41 41.5720 -83.4477 93° East  Level FlightAware Approximate
20:42 41.5698 -83.3875 93° East  Level FlightAware Approximate
20:43 41.5677 -83.3272 93° East  Level FlightAware Approximate
20:44 41.5654 -83.2669 93° East  Level FlightAware Approximate
20:45 41.5632 -83.2066 93° East  Level FlightAware Approximate
20:45 41.5944 -83.0097 93° East 196 226 7,000  Level Cleveland Center
20:46 41.5609 -83.1464 93° East  Level FlightAware Approximate
20:46 41.5936 -82.9542 91° East 192 221 7,000  Level Cleveland Center
20:47 41.5586 -83.0861 93° East  Level FlightAware Approximate
20:47 41.5886 -82.8847 95° East 185 213 7,100  Level Cleveland Center
20:47 41.5858 -82.8236 93° East 190 219 7,000 -480 Descending Cleveland Center
20:48 41.5563 -83.0258 93° East  Level FlightAware Approximate
20:48 41.5850 -82.7486 91° East 214 246 6,200  Level Cleveland Center
20:49 41.5540 -82.9656 93° East  Level FlightAware Approximate
20:49 41.5803 -82.6678 94° East 217 250 5,300  Level Cleveland Center
20:50 41.5516 -82.9053 93° East  Level FlightAware Approximate
20:51 41.5736 -82.5761 96° East 214 246 4,300  Level Cleveland Center
20:51 41.5706 -82.5094 93° East 193 222 3,800 -660 Descending Cleveland Center
20:52 41.5717 -82.4400 89° East 184 212 3,100 -420 Descending Cleveland Center
20:53 41.5747 -82.3789 86° East 164 189 3,000 -60 Descending Cleveland Center
20:54 41.5775 -82.3375 85° East 142 163 3,000  Level Cleveland Center
20:55 41.5764 -82.2819 92° East 145 167 3,000  Level Cleveland Center
20:56 41.5792 -82.2347 85° East 148 170 3,000 -360 Level Cleveland Center
20:57 41.5800 -82.1764 89° East 159 183 2,400 -300 Descending Cleveland Center
20:58 41.5828 -82.1156 86° East 152 175 2,500  Climbing Cleveland Center
20:59 41.5856 -82.0628 86° East 140 161 2,500 -240 Level Cleveland Center
21:00 41.5842 -82.0100 92° East 142 163 2,100 -600 Descending Cleveland Center
21:01 41.5744 -81.9514 102° East 163 188 1,400 -360 Descending Cleveland Center
21:02 41.5625 -81.8986 107° East 128 147 1,400  Level Cleveland Center
21:03 41.5547 -81.8594 105° East 117 135 1,500 -120 Climbing Cleveland Center
21:04 41.5406 -81.8175 114° Southeast 129 148 1,200 -180 Descending Cleveland Center
21:05 41.5264 -81.7758 114° Southeast 128 147 1,200 -120 Level Cleveland Center
21:06 41.5164 -81.7256 105° East 128 147 1,000 -240 Descending Cleveland Center